This is the latest recevied weather packets stored in our database for station/object IN3MWE-10. If no packets are shown the sender has not sent any weather packets the latest 1 day(s).
| Time | Temp. | Humidity | Pressure | Rain* | Wind** | Luminosity | Snow |
|---|---|---|---|---|---|---|---|
| 1777743321 | 22.22° C | 27% | 981.9 hPa | - | - | - | - |
| 1777742421 | 22.22° C | 27% | 981.7 hPa | - | - | - | - |
| 1777741521 | 22.78° C | 25% | 981.6 hPa | - | - | - | - |
| 1777740620 | 23.33° C | 25% | 981.5 hPa | - | - | - | - |
| 1777739720 | 23.89° C | 24% | 981.6 hPa | - | - | - | - |
| 1777738820 | 26.67° C | 22% | 981.5 hPa | - | - | - | - |
| 1777737920 | 27.78° C | 20% | 981.6 hPa | - | - | - | - |
| 1777737020 | 27.22° C | 20% | 981.7 hPa | - | - | - | - |
| 1777736120 | 27.22° C | 20% | 981.7 hPa | - | - | - | - |
| 1777735220 | 28.33° C | 18% | 982 hPa | - | - | - | - |
| 1777734319 | 28.89° C | 17% | 982.2 hPa | - | - | - | - |
| 1777733419 | 30° C | 17% | 982.2 hPa | - | - | - | - |
| 1777732519 | 28.89° C | 17% | 982.5 hPa | - | - | - | - |
| 1777731619 | 30.56° C | 15% | 982.6 hPa | - | - | - | - |
| 1777730719 | 30.56° C | 16% | 983 hPa | - | - | - | - |
| 1777729819 | 30° C | 16% | 983.2 hPa | - | - | - | - |
| 1777728919 | 32.78° C | 14% | 983.4 hPa | - | - | - | - |
| 1777728018 | 30.56° C | 18% | 983.8 hPa | - | - | - | - |
| 1777727118 | 30.56° C | 18% | 984.1 hPa | - | - | - | - |
| 1777726218 | 33.89° C | 14% | 984.2 hPa | - | - | - | - |
| 1777725318 | 32.78° C | 15% | 984.4 hPa | - | - | - | - |
| 1777724418 | 31.11° C | 16% | 984.8 hPa | - | - | - | - |
| 1777723518 | 30.56° C | 18% | 985.2 hPa | - | - | - | - |
| 1777722618 | 32.22° C | 14% | 985.3 hPa | - | - | - | - |
| 1777721717 | 31.67° C | 15% | 985.8 hPa | - | - | - | - |
* Rain since midnight (hover to see other rain measurements)
** Current wind speed in m/s (hover to see current wind gust speed)